sensor_id;sensor_type;location;lat;lon;timestamp;pressure;altitude;pressure_sealevel;temperature;humidity
47530;BME280;33272;51.922;7.730;2023-03-23T00:00:07;145473.16;;;11.99;100.00
47530;BME280;33272;51.922;7.730;2023-03-23T00:02:35;145468.06;;;11.97;100.00
47530;BME280;33272;51.922;7.730;2023-03-23T00:05:04;145470.59;;;11.98;100.00
47530;BME280;33272;51.922;7.730;2023-03-23T00:07:33;145459.19;;;11.93;100.00
47530;BME280;33272;51.922;7.730;2023-03-23T00:10:01;145459.19;;;11.93;100.00
47530;BME280;33272;51.922;7.730;2023-03-23T00:12:31;145464.28;;;11.95;100.00
47530;BME280;33272;51.922;7.730;2023-03-23T00:15:00;145460.44;;;11.94;100.00
47530;BME280;33272;51.922;7.730;2023-03-23T00:17:28;145442.69;;;11.87;100.00
47530;BME280;33272;51.922;7.730;2023-03-23T00:19:55;145437.59;;;11.85;100.00
47530;BME280;33272;51.922;7.730;2023-03-23T00:22:22;145442.69;;;11.87;100.00
47530;BME280;33272;51.922;7.730;2023-03-23T00:24:51;145442.69;;;11.87;100.00
47530;BME280;33272;51.922;7.730;2023-03-23T00:27:19;145443.97;;;11.87;100.00
47530;BME280;33272;51.922;7.730;2023-03-23T00:29:48;145457.94;;;11.93;100.00
47530;BME280;33272;51.922;7.730;2023-03-23T00:32:18;145463.03;;;11.95;100.00
47530;BME280;33272;51.922;7.730;2023-03-23T00:34:46;145445.22;;;11.88;100.00
47530;BME280;33272;51.922;7.730;2023-03-23T00:37:15;145468.06;;;11.97;100.00
47530;BME280;33272;51.922;7.730;2023-03-23T00:39:43;145475.69;;;12.00;100.00
47530;BME280;33272;51.922;7.730;2023-03-23T00:42:13;145480.78;;;12.02;100.00
47530;BME280;33272;51.922;7.730;2023-03-23T00:44:41;145476.94;;;12.00;100.00
47530;BME280;33272;51.922;7.730;2023-03-23T00:47:11;145474.41;;;11.99;100.00
47530;BME280;33272;51.922;7.730;2023-03-23T00:49:38;145468.06;;;11.97;100.00
47530;BME280;33272;51.922;7.730;2023-03-23T00:52:07;145478.19;;;12.01;100.00
47530;BME280;33272;51.922;7.730;2023-03-23T00:54:34;145485.81;;;12.04;100.00
47530;BME280;33272;51.922;7.730;2023-03-23T00:57:04;145488.38;;;12.05;100.00
47530;BME280;33272;51.922;7.730;2023-03-23T00:59:31;145478.19;;;12.01;100.00
47530;BME280;33272;51.922;7.730;2023-03-23T01:01:58;145483.28;;;12.03;100.00
47530;BME280;33272;51.922;7.730;2023-03-23T01:04:27;145492.16;;;12.06;100.00
47530;BME280;33272;51.922;7.730;2023-03-23T01:06:57;145488.38;;;12.05;100.00
47530;BME280;33272;51.922;7.730;2023-03-23T01:09:26;145485.81;;;12.04;100.00
47530;BME280;33272;51.922;7.730;2023-03-23T01:11:53;145488.38;;;12.05;100.00
47530;BME280;33272;51.922;7.730;2023-03-23T01:14:22;145485.81;;;12.04;100.00
47530;BME280;33272;51.922;7.730;2023-03-23T01:16:49;145487.13;;;12.04;100.00
47530;BME280;33272;51.922;7.730;2023-03-23T01:19:16;145479.50;;;12.01;100.00
47530;BME280;33272;51.922;7.730;2023-03-23T01:21:44;145488.38;;;12.05;100.00
47530;BME280;33272;51.922;7.730;2023-03-23T01:24:11;145493.44;;;12.07;100.00
47530;BME280;33272;51.922;7.730;2023-03-23T01:26:38;145480.78;;;12.02;100.00
47530;BME280;33272;51.922;7.730;2023-03-23T01:29:05;145478.19;;;12.01;100.00
47530;BME280;33272;51.922;7.730;2023-03-23T01:31:33;145493.44;;;12.07;100.00
47530;BME280;33272;51.922;7.730;2023-03-23T01:34:02;145496.00;;;12.08;100.00
47530;BME280;33272;51.922;7.730;2023-03-23T01:36:30;145492.16;;;12.06;100.00
47530;BME280;33272;51.922;7.730;2023-03-23T01:39:01;145488.38;;;12.05;100.00
47530;BME280;33272;51.922;7.730;2023-03-23T01:41:30;145497.25;;;12.09;100.00
47530;BME280;33272;51.922;7.730;2023-03-23T01:44:01;145504.88;;;12.12;100.00
47530;BME280;33272;51.922;7.730;2023-03-23T01:46:31;145484.56;;;12.03;100.00
47530;BME280;33272;51.922;7.730;2023-03-23T01:49:03;145493.44;;;12.07;100.00
47530;BME280;33272;51.922;7.730;2023-03-23T01:51:37;145492.16;;;12.06;100.00
47530;BME280;33272;51.922;7.730;2023-03-23T01:54:09;145499.78;;;12.10;100.00
47530;BME280;33272;51.922;7.730;2023-03-23T01:56:43;145502.34;;;12.11;100.00
47530;BME280;33272;51.922;7.730;2023-03-23T01:59:11;145506.13;;;12.12;100.00
47530;BME280;33272;51.922;7.730;2023-03-23T02:01:40;145513.75;;;12.15;100.00
47530;BME280;33272;51.922;7.730;2023-03-23T02:04:11;145511.22;;;12.14;100.00
47530;BME280;33272;51.922;7.730;2023-03-23T02:06:38;145502.34;;;12.11;100.00
47530;BME280;33272;51.922;7.730;2023-03-23T02:09:07;145515.00;;;12.16;100.00
47530;BME280;33272;51.922;7.730;2023-03-23T02:11:34;145529.00;;;12.21;100.00
47530;BME280;33272;51.922;7.730;2023-03-23T02:14:01;145522.63;;;12.19;100.00
47530;BME280;33272;51.922;7.730;2023-03-23T02:16:37;145536.59;;;12.24;100.00
47530;BME280;33272;51.922;7.730;2023-03-23T02:19:41;145551.84;;;12.31;100.00
47530;BME280;33272;51.922;7.730;2023-03-23T02:22:36;145559.47;;;12.34;100.00
47530;BME280;33272;51.922;7.730;2023-03-23T02:25:37;145517.53;;;12.17;100.00
47530;BME280;33272;51.922;7.730;2023-03-23T02:28:38;145541.69;;;12.26;100.00
47530;BME280;33272;51.922;7.730;2023-03-23T02:31:30;145544.22;;;12.27;100.00
47530;BME280;33272;51.922;7.730;2023-03-23T02:34:08;145540.38;;;12.26;100.00
47530;BME280;33272;51.922;7.730;2023-03-23T02:36:41;145541.69;;;12.26;100.00
47530;BME280;33272;51.922;7.730;2023-03-23T02:39:14;145546.75;;;12.28;100.00
47530;BME280;33272;51.922;7.730;2023-03-23T02:41:49;145548.00;;;12.29;100.00
47530;BME280;33272;51.922;7.730;2023-03-23T02:44:19;145559.47;;;12.34;100.00
47530;BME280;33272;51.922;7.730;2023-03-23T02:46:47;145556.94;;;12.33;100.00
47530;BME280;33272;51.922;7.730;2023-03-23T02:49:18;145558.19;;;12.33;100.00
47530;BME280;33272;51.922;7.730;2023-03-23T02:51:47;145544.22;;;12.27;100.00
47530;BME280;33272;51.922;7.730;2023-03-23T02:54:15;145551.84;;;12.31;100.00
47530;BME280;33272;51.922;7.730;2023-03-23T02:56:45;145564.50;;;12.36;100.00
47530;BME280;33272;51.922;7.730;2023-03-23T02:59:12;145575.94;;;12.40;100.00
47530;BME280;33272;51.922;7.730;2023-03-23T03:01:58;145558.19;;;12.33;100.00
47530;BME280;33272;51.922;7.730;2023-03-23T03:04:30;145560.72;;;12.34;100.00
47530;BME280;33272;51.922;7.730;2023-03-23T03:07:19;145567.06;;;12.37;100.00
47530;BME280;33272;51.922;7.730;2023-03-23T03:09:54;145560.72;;;12.34;100.00
47530;BME280;33272;51.922;7.730;2023-03-23T03:12:32;145570.84;;;12.38;100.00
47530;BME280;33272;51.922;7.730;2023-03-23T03:15:11;145579.72;;;12.42;100.00
47530;BME280;33272;51.922;7.730;2023-03-23T03:17:44;145578.47;;;12.41;100.00
47530;BME280;33272;51.922;7.730;2023-03-23T03:20:16;145570.84;;;12.38;100.00
47530;BME280;33272;51.922;7.730;2023-03-23T03:22:45;145575.94;;;12.40;100.00
47530;BME280;33272;51.922;7.730;2023-03-23T03:25:15;145569.59;;;12.38;100.00
47530;BME280;33272;51.922;7.730;2023-03-23T03:27:45;145569.59;;;12.38;100.00
47530;BME280;33272;51.922;7.730;2023-03-23T03:30:19;145568.34;;;12.37;100.00
47530;BME280;33272;51.922;7.730;2023-03-23T03:32:51;145556.94;;;12.33;100.00
47530;BME280;33272;51.922;7.730;2023-03-23T03:35:22;145559.47;;;12.34;100.00
47530;BME280;33272;51.922;7.730;2023-03-23T03:37:50;145553.09;;;12.31;100.00
47530;BME280;33272;51.922;7.730;2023-03-23T03:40:20;145553.09;;;12.31;100.00
47530;BME280;33272;51.922;7.730;2023-03-23T03:42:48;145551.84;;;12.31;100.00
47530;BME280;33272;51.922;7.730;2023-03-23T03:45:18;145554.38;;;12.32;100.00
47530;BME280;33272;51.922;7.730;2023-03-23T03:47:45;145564.50;;;12.36;100.00
47530;BME280;33272;51.922;7.730;2023-03-23T03:50:12;145553.09;;;12.31;100.00
47530;BME280;33272;51.922;7.730;2023-03-23T03:52:41;145559.47;;;12.34;100.00
47530;BME280;33272;51.922;7.730;2023-03-23T03:55:09;145572.13;;;12.39;100.00
47530;BME280;33272;51.922;7.730;2023-03-23T03:57:37;145569.59;;;12.38;100.00
47530;BME280;33272;51.922;7.730;2023-03-23T04:00:08;145569.59;;;12.38;100.00
47530;BME280;33272;51.922;7.730;2023-03-23T04:02:41;145567.06;;;12.37;100.00
47530;BME280;33272;51.922;7.730;2023-03-23T04:05:09;145559.47;;;12.34;100.00
47530;BME280;33272;51.922;7.730;2023-03-23T04:07:37;145570.84;;;12.38;100.00
47530;BME280;33272;51.922;7.730;2023-03-23T04:10:08;145570.84;;;12.38;100.00
47530;BME280;33272;51.922;7.730;2023-03-23T04:12:37;145575.94;;;12.40;100.00
47530;BME280;33272;51.922;7.730;2023-03-23T04:15:05;145579.72;;;12.42;100.00
47530;BME280;33272;51.922;7.730;2023-03-23T04:17:33;145584.81;;;12.44;100.00
47530;BME280;33272;51.922;7.730;2023-03-23T04:20:00;145592.44;;;12.47;100.00
47530;BME280;33272;51.922;7.730;2023-03-23T04:22:31;145587.34;;;12.45;100.00
47530;BME280;33272;51.922;7.730;2023-03-23T04:25:00;145598.81;;;12.49;100.00
47530;BME280;33272;51.922;7.730;2023-03-23T04:27:32;145602.59;;;12.51;100.00
47530;BME280;33272;51.922;7.730;2023-03-23T04:30:00;145607.69;;;12.53;100.00
47530;BME280;33272;51.922;7.730;2023-03-23T04:32:28;145606.41;;;12.52;100.00
47530;BME280;33272;51.922;7.730;2023-03-23T04:34:56;145617.81;;;12.57;100.00
47530;BME280;33272;51.922;7.730;2023-03-23T04:37:25;145625.44;;;12.60;100.00
47530;BME280;33272;51.922;7.730;2023-03-23T04:39:55;145621.66;;;12.59;100.00
47530;BME280;33272;51.922;7.730;2023-03-23T04:42:27;145631.81;;;12.63;100.00
47530;BME280;33272;51.922;7.730;2023-03-23T04:44:57;145612.78;;;12.55;100.00
47530;BME280;33272;51.922;7.730;2023-03-23T04:47:26;145629.28;;;12.62;100.00
47530;BME280;33272;51.922;7.730;2023-03-23T04:49:55;145638.16;;;12.65;100.00
47530;BME280;33272;51.922;7.730;2023-03-23T04:52:23;145634.31;;;12.64;100.00
47530;BME280;33272;51.922;7.730;2023-03-23T04:54:51;145648.31;;;12.69;100.00
47530;BME280;33272;51.922;7.730;2023-03-23T04:57:19;145641.94;;;12.67;100.00
47530;BME280;33272;51.922;7.730;2023-03-23T04:59:46;145631.81;;;12.63;100.00
47530;BME280;33272;51.922;7.730;2023-03-23T05:02:14;145639.41;;;12.66;100.00
47530;BME280;33272;51.922;7.730;2023-03-23T05:04:43;145636.91;;;12.65;100.00
47530;BME280;33272;51.922;7.730;2023-03-23T05:07:11;145638.16;;;12.65;100.00
47530;BME280;33272;51.922;7.730;2023-03-23T05:09:38;145634.31;;;12.64;100.00
47530;BME280;33272;51.922;7.730;2023-03-23T05:12:06;145635.63;;;12.64;100.00
47530;BME280;33272;51.922;7.730;2023-03-23T05:14:34;145611.47;;;12.55;100.00
47530;BME280;33272;51.922;7.730;2023-03-23T05:17:02;145639.41;;;12.66;100.00
47530;BME280;33272;51.922;7.730;2023-03-23T05:19:30;145633.06;;;12.63;100.00
47530;BME280;33272;51.922;7.730;2023-03-23T05:21:58;145640.69;;;12.66;100.00
47530;BME280;33272;51.922;7.730;2023-03-23T05:24:29;145617.81;;;12.57;100.00
47530;BME280;33272;51.922;7.730;2023-03-23T05:26:58;145625.44;;;12.60;100.00
47530;BME280;33272;51.922;7.730;2023-03-23T05:29:25;145628.00;;;12.61;100.00
47530;BME280;33272;51.922;7.730;2023-03-23T05:31:55;145634.31;;;12.64;100.00
47530;BME280;33272;51.922;7.730;2023-03-23T05:34:25;145644.50;;;12.68;100.00
47530;BME280;33272;51.922;7.730;2023-03-23T05:36:56;145645.78;;;12.68;100.00
47530;BME280;33272;51.922;7.730;2023-03-23T05:39:23;145645.78;;;12.68;100.00
47530;BME280;33272;51.922;7.730;2023-03-23T05:41:50;145638.16;;;12.65;100.00
47530;BME280;33272;51.922;7.730;2023-03-23T05:44:17;145633.06;;;12.63;100.00
47530;BME280;33272;51.922;7.730;2023-03-23T05:46:44;145644.50;;;12.68;100.00
47530;BME280;33272;51.922;7.730;2023-03-23T05:49:12;145640.69;;;12.66;100.00
47530;BME280;33272;51.922;7.730;2023-03-23T05:51:39;145655.91;;;12.72;100.00
47530;BME280;33272;51.922;7.730;2023-03-23T05:54:08;145662.28;;;12.75;100.00
47530;BME280;33272;51.922;7.730;2023-03-23T05:56:36;145647.03;;;12.69;100.00
47530;BME280;33272;51.922;7.730;2023-03-23T05:59:03;145643.25;;;12.67;100.00
47530;BME280;33272;51.922;7.730;2023-03-23T06:01:30;145677.53;;;12.81;100.00
47530;BME280;33272;51.922;7.730;2023-03-23T06:03:58;145688.91;;;12.86;100.00
47530;BME280;33272;51.922;7.730;2023-03-23T06:06:26;145694.03;;;12.88;100.00
47530;BME280;33272;51.922;7.730;2023-03-23T06:08:53;145691.50;;;12.87;100.00
47530;BME280;33272;51.922;7.730;2023-03-23T06:11:22;145701.63;;;12.91;100.00
47530;BME280;33272;51.922;7.730;2023-03-23T06:13:58;145692.75;;;12.87;100.00
47530;BME280;33272;51.922;7.730;2023-03-23T06:16:24;145719.41;;;12.98;100.00
47530;BME280;33272;51.922;7.730;2023-03-23T06:18:52;145697.84;;;12.89;100.00
47530;BME280;33272;51.922;7.730;2023-03-23T06:21:19;145746.09;;;13.09;100.00
47530;BME280;33272;51.922;7.730;2023-03-23T06:23:47;145735.91;;;13.05;100.00
47530;BME280;33272;51.922;7.730;2023-03-23T06:26:17;145732.13;;;13.03;100.00
47530;BME280;33272;51.922;7.730;2023-03-23T06:28:46;145746.09;;;13.09;100.00
47530;BME280;33272;51.922;7.730;2023-03-23T06:31:14;145747.38;;;13.09;100.00
47530;BME280;33272;51.922;7.730;2023-03-23T06:33:43;145751.16;;;13.11;100.00
47530;BME280;33272;51.922;7.730;2023-03-23T06:36:10;145770.22;;;13.18;100.00
47530;BME280;33272;51.922;7.730;2023-03-23T06:38:37;145761.34;;;13.15;100.00
47530;BME280;33272;51.922;7.730;2023-03-23T06:41:05;145744.84;;;13.08;100.00
47530;BME280;33272;51.922;7.730;2023-03-23T06:43:32;145756.25;;;13.13;100.00
47530;BME280;33272;51.922;7.730;2023-03-23T06:46:03;145746.09;;;13.09;100.00
47530;BME280;33272;51.922;7.730;2023-03-23T06:48:30;145763.88;;;13.16;100.00
47530;BME280;33272;51.922;7.730;2023-03-23T06:50:57;145767.66;;;13.17;100.00
47530;BME280;33272;51.922;7.730;2023-03-23T06:53:25;145780.38;;;13.22;100.00
47530;BME280;33272;51.922;7.730;2023-03-23T06:55:54;145789.31;;;13.26;100.00
47530;BME280;33272;51.922;7.730;2023-03-23T06:58:22;145803.28;;;13.32;100.00
47530;BME280;33272;51.922;7.730;2023-03-23T07:00:54;145829.94;;;13.42;100.00
47530;BME280;33272;51.922;7.730;2023-03-23T07:03:23;145861.72;;;13.55;100.00
47530;BME280;33272;51.922;7.730;2023-03-23T07:05:51;145842.69;;;13.48;100.00
47530;BME280;33272;51.922;7.730;2023-03-23T07:08:18;145889.69;;;13.66;100.00
47530;BME280;33272;51.922;7.730;2023-03-23T07:10:45;145882.06;;;13.63;100.00
47530;BME280;33272;51.922;7.730;2023-03-23T07:13:12;145894.78;;;13.68;100.00
47530;BME280;33272;51.922;7.730;2023-03-23T07:15:39;145922.72;;;13.80;100.00
47530;BME280;33272;51.922;7.730;2023-03-23T07:18:06;145959.59;;;13.95;100.00
47530;BME280;33272;51.922;7.730;2023-03-23T07:20:35;145998.97;;;14.10;100.00
47530;BME280;33272;51.922;7.730;2023-03-23T07:23:03;145998.97;;;14.10;100.00
47530;BME280;33272;51.922;7.730;2023-03-23T07:25:31;145988.84;;;14.06;100.00
47530;BME280;33272;51.922;7.730;2023-03-23T07:27:59;145990.09;;;14.07;100.00
47530;BME280;33272;51.922;7.730;2023-03-23T07:30:26;145953.22;;;13.92;100.00
47530;BME280;33272;51.922;7.730;2023-03-23T07:32:55;145943.06;;;13.88;100.00
47530;BME280;33272;51.922;7.730;2023-03-23T07:35:22;145968.47;;;13.98;100.00
47530;BME280;33272;51.922;7.730;2023-03-23T07:37:50;145927.81;;;13.82;100.00
47530;BME280;33272;51.922;7.730;2023-03-23T07:40:19;145960.84;;;13.95;100.00
47530;BME280;33272;51.922;7.730;2023-03-23T07:42:52;145908.72;;;13.74;100.00
47530;BME280;33272;51.922;7.730;2023-03-23T07:45:19;145927.81;;;13.82;100.00
47530;BME280;33272;51.922;7.730;2023-03-23T07:47:46;145874.44;;;13.60;100.00
47530;BME280;33272;51.922;7.730;2023-03-23T07:50:13;145896.06;;;13.69;100.00
47530;BME280;33272;51.922;7.730;2023-03-23T07:52:41;145836.31;;;13.45;100.00
47530;BME280;33272;51.922;7.730;2023-03-23T07:55:11;145849.03;;;13.50;100.00
47530;BME280;33272;51.922;7.730;2023-03-23T07:57:43;145836.31;;;13.45;100.00
47530;BME280;33272;51.922;7.730;2023-03-23T08:00:12;145837.56;;;13.45;100.00
47530;BME280;33272;51.922;7.730;2023-03-23T08:02:45;145851.56;;;13.51;100.00
47530;BME280;33272;51.922;7.730;2023-03-23T08:05:12;145861.72;;;13.55;100.00
47530;BME280;33272;51.922;7.730;2023-03-23T08:07:40;145871.91;;;13.59;100.00
47530;BME280;33272;51.922;7.730;2023-03-23T08:10:10;145878.28;;;13.62;100.00
47530;BME280;33272;51.922;7.730;2023-03-23T08:12:38;145903.69;;;13.72;100.00
47530;BME280;33272;51.922;7.730;2023-03-23T08:15:07;145893.47;;;13.68;100.00
47530;BME280;33272;51.922;7.730;2023-03-23T08:17:35;145929.06;;;13.82;100.00
47530;BME280;33272;51.922;7.730;2023-03-23T08:20:04;145937.97;;;13.86;100.00
47530;BME280;33272;51.922;7.730;2023-03-23T08:22:39;145973.56;;;14.00;100.00
47530;BME280;33272;51.922;7.730;2023-03-23T08:25:11;146002.78;;;14.12;100.00
47530;BME280;33272;51.922;7.730;2023-03-23T08:27:38;146016.78;;;14.18;100.00
47530;BME280;33272;51.922;7.730;2023-03-23T08:30:17;146019.34;;;14.19;100.00
47530;BME280;33272;51.922;7.730;2023-03-23T08:32:46;146026.94;;;14.22;100.00
47530;BME280;33272;51.922;7.730;2023-03-23T08:35:15;146039.66;;;14.27;100.00
47530;BME280;33272;51.922;7.730;2023-03-23T08:37:43;146057.44;;;14.34;100.00
47530;BME280;33272;51.922;7.730;2023-03-23T08:40:14;146007.88;;;14.14;100.00
47530;BME280;33272;51.922;7.730;2023-03-23T08:42:46;146010.41;;;14.15;100.00
47530;BME280;33272;51.922;7.730;2023-03-23T08:45:18;146029.50;;;14.23;100.00
47530;BME280;33272;51.922;7.730;2023-03-23T08:47:46;146094.31;;;14.49;100.00
47530;BME280;33272;51.922;7.730;2023-03-23T08:50:20;146123.63;;;14.60;100.00
47530;BME280;33272;51.922;7.730;2023-03-23T08:52:48;146080.31;;;14.43;100.00
47530;BME280;33272;51.922;7.730;2023-03-23T08:55:17;146096.84;;;14.50;100.00
47530;BME280;33272;51.922;7.730;2023-03-23T08:57:45;146077.81;;;14.42;100.00
47530;BME280;33272;51.922;7.730;2023-03-23T09:00:16;146105.84;;;14.53;100.00
47530;BME280;33272;51.922;7.730;2023-03-23T09:02:45;146123.63;;;14.60;100.00
47530;BME280;33272;51.922;7.730;2023-03-23T09:05:13;146062.53;;;14.36;100.00
47530;BME280;33272;51.922;7.730;2023-03-23T09:07:43;146102.00;;;14.52;100.00
47530;BME280;33272;51.922;7.730;2023-03-23T09:10:12;146048.53;;;14.30;100.00
47530;BME280;33272;51.922;7.730;2023-03-23T09:12:42;146024.41;;;14.21;100.00
47530;BME280;33272;51.922;7.730;2023-03-23T09:15:12;146032.03;;;14.24;100.00
47530;BME280;33272;51.922;7.730;2023-03-23T09:17:42;145990.09;;;14.07;100.00
47530;BME280;33272;51.922;7.730;2023-03-23T09:20:12;145912.56;;;13.76;100.00
47530;BME280;33272;51.922;7.730;2023-03-23T09:22:42;145880.78;;;13.63;100.00
47530;BME280;33272;51.922;7.730;2023-03-23T09:25:13;145899.84;;;13.71;100.00
47530;BME280;33272;51.922;7.730;2023-03-23T09:27:42;145889.69;;;13.66;100.00
47530;BME280;33272;51.922;7.730;2023-03-23T09:30:14;145842.69;;;13.48;100.00
47530;BME280;33272;51.922;7.730;2023-03-23T09:32:41;145870.66;;;13.59;100.00
47530;BME280;33272;51.922;7.730;2023-03-23T09:35:10;145873.16;;;13.60;100.00
47530;BME280;33272;51.922;7.730;2023-03-23T09:37:39;145854.09;;;13.52;100.00
47530;BME280;33272;51.922;7.730;2023-03-23T09:40:11;145840.16;;;13.47;100.00
47530;BME280;33272;51.922;7.730;2023-03-23T09:42:56;145832.53;;;13.43;100.00
47530;BME280;33272;51.922;7.730;2023-03-23T09:45:29;145874.44;;;13.60;100.00
47530;BME280;33272;51.922;7.730;2023-03-23T09:48:20;145901.09;;;13.71;100.00
47530;BME280;33272;51.922;7.730;2023-03-23T09:50:57;145943.06;;;13.88;100.00
47530;BME280;33272;51.922;7.730;2023-03-23T09:53:31;145960.84;;;13.95;100.00
47530;BME280;33272;51.922;7.730;2023-03-23T09:56:01;145986.25;;;14.05;100.00
47530;BME280;33272;51.922;7.730;2023-03-23T09:58:35;145896.06;;;13.69;100.00
47530;BME280;33272;51.922;7.730;2023-03-23T10:01:10;145742.28;;;13.07;100.00
47530;BME280;33272;51.922;7.730;2023-03-23T10:03:43;145558.19;;;12.33;100.00
47530;BME280;33272;51.922;7.730;2023-03-23T10:06:13;145473.16;;;11.99;100.00
47530;BME280;33272;51.922;7.730;2023-03-23T10:08:47;145336.06;;;11.44;100.00
47530;BME280;33272;51.922;7.730;2023-03-23T10:11:26;145191.53;;;10.85;100.00
47530;BME280;33272;51.922;7.730;2023-03-23T10:14:10;145176.31;;;10.79;100.00
47530;BME280;33272;51.922;7.730;2023-03-23T10:16:43;145162.38;;;10.74;100.00
47530;BME280;33272;51.922;7.730;2023-03-23T10:19:23;145156.03;;;10.71;100.00
47530;BME280;33272;51.922;7.730;2023-03-23T10:21:59;145157.28;;;10.72;100.00
47530;BME280;33272;51.922;7.730;2023-03-23T10:24:35;145154.75;;;10.71;100.00
47530;BME280;33272;51.922;7.730;2023-03-23T10:27:18;145178.84;;;10.80;100.00
47530;BME280;33272;51.922;7.730;2023-03-23T10:29:53;145148.41;;;10.68;100.00
47530;BME280;33272;51.922;7.730;2023-03-23T10:32:39;145151.00;;;10.69;100.00
47530;BME280;33272;51.922;7.730;2023-03-23T10:35:13;145214.38;;;10.95;100.00
47530;BME280;33272;51.922;7.730;2023-03-23T10:37:45;145263.78;;;11.14;100.00
47530;BME280;33272;51.922;7.730;2023-03-23T10:40:17;145267.63;;;11.16;100.00
47530;BME280;33272;51.922;7.730;2023-03-23T10:42:46;145289.16;;;11.25;100.00
47530;BME280;33272;51.922;7.730;2023-03-23T10:45:20;145300.59;;;11.29;100.00
47530;BME280;33272;51.922;7.730;2023-03-23T10:47:52;145313.25;;;11.34;100.00
47530;BME280;33272;51.922;7.730;2023-03-23T10:50:26;145328.47;;;11.41;100.00
47530;BME280;33272;51.922;7.730;2023-03-23T10:52:56;145375.38;;;11.59;100.00
47530;BME280;33272;51.922;7.730;2023-03-23T10:55:35;145435.03;;;11.83;100.00
47530;BME280;33272;51.922;7.730;2023-03-23T10:58:05;145478.19;;;12.01;100.00
47530;BME280;33272;51.922;7.730;2023-03-23T11:00:41;145554.38;;;12.32;100.00
47530;BME280;33272;51.922;7.730;2023-03-23T11:03:25;145554.38;;;12.32;100.00
47530;BME280;33272;51.922;7.730;2023-03-23T11:05:57;145573.44;;;12.39;100.00
47530;BME280;33272;51.922;7.730;2023-03-23T11:08:28;145550.56;;;12.30;100.00
47530;BME280;33272;51.922;7.730;2023-03-23T11:11:07;145515.00;;;12.16;100.00
47530;BME280;33272;51.922;7.730;2023-03-23T11:13:40;145485.81;;;12.04;100.00
47530;BME280;33272;51.922;7.730;2023-03-23T11:16:21;145432.50;;;11.82;100.00
47530;BME280;33272;51.922;7.730;2023-03-23T11:18:48;145463.03;;;11.95;100.00
47530;BME280;33272;51.922;7.730;2023-03-23T11:21:16;145516.28;;;12.16;100.00
47530;BME280;33272;51.922;7.730;2023-03-23T11:23:49;145499.78;;;12.10;100.00
47530;BME280;33272;51.922;7.730;2023-03-23T11:26:21;145530.25;;;12.22;100.00
47530;BME280;33272;51.922;7.730;2023-03-23T11:28:55;145561.97;;;12.35;100.00
47530;BME280;33272;51.922;7.730;2023-03-23T11:31:32;145586.09;;;12.44;100.00
47530;BME280;33272;51.922;7.730;2023-03-23T11:34:03;145600.06;;;12.50;100.00
47530;BME280;33272;51.922;7.730;2023-03-23T11:36:36;145639.41;;;12.66;100.00
47530;BME280;33272;51.922;7.730;2023-03-23T11:39:23;145699.13;;;12.90;100.00
47530;BME280;33272;51.922;7.730;2023-03-23T11:41:51;145659.75;;;12.74;100.00
47530;BME280;33272;51.922;7.730;2023-03-23T11:44:20;145658.44;;;12.73;100.00
47530;BME280;33272;51.922;7.730;2023-03-23T11:46:58;145677.53;;;12.81;100.00
47530;BME280;33272;51.922;7.730;2023-03-23T11:49:38;145687.66;;;12.85;100.00
47530;BME280;33272;51.922;7.730;2023-03-23T11:52:16;145641.94;;;12.67;100.00
47530;BME280;33272;51.922;7.730;2023-03-23T11:54:52;145594.97;;;12.48;100.00
47530;BME280;33272;51.922;7.730;2023-03-23T11:57:21;145621.66;;;12.59;100.00
47530;BME280;33272;51.922;7.730;2023-03-23T11:59:50;145640.69;;;12.66;100.00
47530;BME280;33272;51.922;7.730;2023-03-23T12:02:39;145605.16;;;12.52;100.00
47530;BME280;33272;51.922;7.730;2023-03-23T12:05:34;145611.47;;;12.55;100.00
47530;BME280;33272;51.922;7.730;2023-03-23T12:08:17;145645.78;;;12.68;100.00
47530;BME280;33272;51.922;7.730;2023-03-23T12:10:56;145607.69;;;12.53;100.00
47530;BME280;33272;51.922;7.730;2023-03-23T12:13:42;145650.88;;;12.70;100.00
47530;BME280;33272;51.922;7.730;2023-03-23T12:16:26;145710.53;;;12.94;100.00
47530;BME280;33272;51.922;7.730;2023-03-23T12:19:05;145772.75;;;13.19;100.00
47530;BME280;33272;51.922;7.730;2023-03-23T12:21:44;145757.50;;;13.13;100.00
47530;BME280;33272;51.922;7.730;2023-03-23T12:24:27;145774.03;;;13.20;100.00
47530;BME280;33272;51.922;7.730;2023-03-23T12:27:04;145875.69;;;13.61;100.00
47530;BME280;33272;51.922;7.730;2023-03-23T12:29:49;145964.69;;;13.97;100.00
47530;BME280;33272;51.922;7.730;2023-03-23T12:32:46;145977.38;;;14.02;100.00
47530;BME280;33272;51.922;7.730;2023-03-23T12:35:36;145990.09;;;14.07;100.00
47530;BME280;33272;51.922;7.730;2023-03-23T12:38:30;146025.66;;;14.21;100.00
47530;BME280;33272;51.922;7.730;2023-03-23T12:41:12;146033.28;;;14.24;100.00
47530;BME280;33272;51.922;7.730;2023-03-23T12:43:51;146020.59;;;14.19;100.00
47530;BME280;33272;51.922;7.730;2023-03-23T12:46:44;145949.44;;;13.90;100.00
47530;BME280;33272;51.922;7.730;2023-03-23T12:49:18;145983.72;;;14.04;100.00
47530;BME280;33272;51.922;7.730;2023-03-23T12:51:52;145946.84;;;13.89;100.00
47530;BME280;33272;51.922;7.730;2023-03-23T12:54:27;145915.09;;;13.77;100.00
47530;BME280;33272;51.922;7.730;2023-03-23T12:57:02;145918.94;;;13.78;100.00
47530;BME280;33272;51.922;7.730;2023-03-23T12:59:38;145921.44;;;13.79;100.00
47530;BME280;33272;51.922;7.730;2023-03-23T13:02:16;145964.69;;;13.97;100.00